Terminal Aerodrome Forecast
Issued by NWS Nashville, TN

Home | Current Version | Previous Version | Text Only | Print | Product List | Glossary On
Versions: 1 2 3 4 5 6 7 8 9 10 11 12
217
FTUS44 KOHX 031120
TAFBNA
TAF
KBNA 031120Z 0312/0412 04005KT P6SM OVC150
     FM040000 05004KT P6SM VCSH OVC090
     FM040300 06004KT 6SM -RA OVC070
     FM040800 08004KT 5SM -RA BR OVC020=

USA.gov is the U.S. government's official web portal to all federal, state and local government web resources and services.